Time;durP1;ratioP1;P1;durP2;ratioP2;P2;SDS_P1;SDS_P2;PMS_P1;PMS_P2;Temp;Humidity;BMP_temperature;BMP_pressure;BME280_temperature;BME280_humidity;BME280_pressure;Samples;Min_cycle;Max_cycle;Signal;HPM_P1;HPM_P2
2021/09/30 00:01:42;;;;;;;12.38;11.48;;;11.30;82.40;;;;;;5011492;29;20110;-69
2021/09/30 00:04:14;;;;;;;12.25;11.35;;;11.20;82.50;;;;;;5012492;29;20137;-70
2021/09/30 00:06:46;;;;;;;12.23;11.27;;;11.20;82.80;;;;;;5011849;29;20056;-68
2021/09/30 00:09:18;;;;;;;12.40;11.40;;;11.30;82.90;;;;;;5009087;29;20615;-69
2021/09/30 00:11:54;;;;;;;12.20;11.20;;;11.30;82.70;;;;;;5012348;29;20520;-67
2021/09/30 00:34:13;;;;;;;12.93;12.00;;;11.30;83.50;;;;;;4986970;29;20053;-68
2021/09/30 00:39:58;;;;;;;;;;;11.20;83.50;;;;;;5000303;29;20618;-68
2021/09/30 00:48:10;;;;;;;;;;;11.10;84.20;;;;;;5011499;29;20444;-67
2021/09/30 00:51:01;;;;;;;12.32;11.38;;;11.10;84.20;;;;;;5001155;29;19932;-67
2021/09/30 01:52:36;;;;;;;13.63;12.63;;;10.70;85.10;;;;;;5007964;29;20420;-68
2021/09/30 01:58:19;;;;;;;;;;;10.70;86.20;;;;;;4994323;29;20054;-67
2021/09/30 02:19:01;;;;;;;13.27;12.30;;;10.10;85.40;;;;;;5010614;29;20582;-68
2021/09/30 02:25:30;;;;;;;13.00;11.90;;;10.00;86.40;;;;;;5007533;29;20145;-67
2021/09/30 02:30:27;;;;;;;12.88;11.90;;;10.00;85.10;;;;;;5014055;29;20053;-67
2021/09/30 02:59:39;;;;;;;11.93;11.02;;;9.80;85.30;;;;;;5000856;29;20556;-67
2021/09/30 03:02:13;;;;;;;11.90;10.80;;;9.80;86.30;;;;;;5009097;29;20046;-68
2021/09/30 03:04:46;;;;;;;12.18;11.20;;;9.70;86.60;;;;;;5015660;29;20050;-67
2021/09/30 03:07:19;;;;;;;11.98;11.07;;;9.70;87.20;;;;;;5007555;29;20658;-68
2021/09/30 03:09:54;;;;;;;12.75;11.70;;;9.70;86.00;;;;;;5009615;29;20106;-68
2021/09/30 03:12:30;;;;;;;11.82;11.00;;;9.70;86.10;;;;;;5010564;29;22106;-68
2021/09/30 03:17:55;;;;;;;11.70;10.90;;;9.50;87.30;;;;;;5007383;29;20061;-68
2021/09/30 03:23:17;;;;;;;11.90;11.00;;;9.50;87.90;;;;;;5009812;29;20145;-67
2021/09/30 03:25:51;;;;;;;12.00;11.00;;;9.40;88.30;;;;;;5014200;29;20239;-67
2021/09/30 03:28:25;;;;;;;12.10;11.10;;;9.40;87.70;;;;;;5009971;29;20073;-68
2021/09/30 03:31:00;;;;;;;12.27;11.27;;;9.30;86.70;;;;;;5010762;29;20076;-67
2021/09/30 03:33:42;;;;;;;11.88;10.98;;;9.30;85.90;;;;;;4995118;29;20558;-68
2021/09/30 03:36:16;;;;;;;12.43;11.25;;;9.30;86.50;;;;;;4969207;29;20069;-68
2021/09/30 03:38:49;;;;;;;12.30;11.40;;;9.30;87.50;;;;;;5000996;29;20057;-68
2021/09/30 03:41:22;;;;;;;12.57;11.57;;;9.30;86.90;;;;;;5010029;29;20164;-68
2021/09/30 03:43:54;;;;;;;12.10;11.20;;;9.40;86.60;;;;;;4984948;29;20493;-67
2021/09/30 03:46:27;;;;;;;12.10;11.20;;;9.40;87.60;;;;;;5007721;29;20054;-67
2021/09/30 03:49:29;;;;;;;12.00;11.10;;;9.40;88.00;;;;;;5011389;29;20902;-67
2021/09/30 03:52:09;;;;;;;11.93;11.02;;;9.40;87.50;;;;;;5011099;29;20494;-67
2021/09/30 03:57:49;;;;;;;11.90;11.00;;;9.50;86.60;;;;;;5008128;29;20085;-67
2021/09/30 04:00:21;;;;;;;12.57;11.48;;;9.40;87.10;;;;;;5014010;29;20053;-67
2021/09/30 04:02:58;;;;;;;11.57;10.68;;;9.40;86.90;;;;;;5009860;29;20164;-67
2021/09/30 04:05:36;;;;;;;11.60;10.60;;;9.40;87.60;;;;;;5007757;29;20041;-67
2021/09/30 04:08:08;;;;;;;11.40;10.60;;;9.30;88.70;;;;;;5010629;29;21877;-67
2021/09/30 04:10:41;;;;;;;12.20;11.30;;;9.30;88.80;;;;;;4994319;29;20052;-67
2021/09/30 04:13:14;;;;;;;12.00;10.90;;;9.30;88.40;;;;;;4993865;29;20638;-67
2021/09/30 04:15:49;;;;;;;12.20;11.25;;;9.30;87.50;;;;;;5008670;29;20048;-67
2021/09/30 04:18:21;;;;;;;11.90;11.00;;;9.30;87.90;;;;;;4999644;29;20587;-67
2021/09/30 04:20:55;;;;;;;12.30;11.20;;;9.20;87.80;;;;;;5007603;29;20045;-67
2021/09/30 04:23:26;;;;;;;12.13;11.13;;;9.20;88.10;;;;;;5010590;29;20140;-66
2021/09/30 04:25:58;;;;;;;12.20;11.30;;;9.20;88.00;;;;;;5010180;29;20428;-67
2021/09/30 04:28:33;;;;;;;11.75;10.85;;;9.10;87.90;;;;;;5007901;29;20583;-66
2021/09/30 04:31:06;;;;;;;11.82;10.90;;;9.20;87.50;;;;;;5007248;29;20054;-68
2021/09/30 04:33:51;;;;;;;12.00;11.00;;;9.10;88.30;;;;;;5010028;29;20060;-67
2021/09/30 04:36:24;;;;;;;11.52;10.63;;;9.10;87.40;;;;;;5011962;29;20141;-67
2021/09/30 04:38:56;;;;;;;11.30;10.40;;;9.10;88.60;;;;;;4995304;29;20049;-67
2021/09/30 04:41:28;;;;;;;10.85;9.95;;;9.10;88.40;;;;;;5007285;29;20045;-67
2021/09/30 04:44:00;;;;;;;11.27;10.30;;;9.20;88.30;;;;;;5008222;29;20052;-67
2021/09/30 04:46:32;;;;;;;11.18;10.20;;;9.10;88.90;;;;;;5007434;29;20206;-67
2021/09/30 04:49:23;;;;;;;10.93;10.13;;;9.20;89.00;;;;;;5008575;29;20524;-67
2021/09/30 04:51:55;;;;;;;11.50;10.50;;;9.20;88.40;;;;;;5006655;29;20142;-67
2021/09/30 04:54:27;;;;;;;11.27;10.25;;;9.10;88.50;;;;;;5008960;29;20061;-67
2021/09/30 04:56:59;;;;;;;11.77;10.77;;;9.10;87.80;;;;;;5006282;29;20567;-67
2021/09/30 04:59:38;;;;;;;11.45;10.55;;;9.10;87.80;;;;;;5006495;29;20099;-67
2021/09/30 05:02:29;;;;;;;11.23;10.43;;;9.10;88.10;;;;;;4998674;29;20072;-67
2021/09/30 05:05:02;;;;;;;11.63;10.75;;;9.00;88.30;;;;;;4982560;29;20140;-67
2021/09/30 05:07:35;;;;;;;11.50;10.60;;;9.00;87.50;;;;;;4998184;29;20045;-67
2021/09/30 05:10:11;;;;;;;11.77;10.77;;;9.00;87.10;;;;;;4994041;29;20049;-67
2021/09/30 05:12:43;;;;;;;11.30;10.40;;;9.00;87.80;;;;;;4998566;29;20049;-66
2021/09/30 05:15:15;;;;;;;11.65;10.75;;;9.00;88.10;;;;;;4995188;29;20526;-67
2021/09/30 05:17:47;;;;;;;11.55;10.65;;;9.00;87.20;;;;;;5007264;29;20053;-66
2021/09/30 05:20:18;;;;;;;11.93;11.02;;;9.00;87.90;;;;;;5008298;29;20815;-67
2021/09/30 05:22:51;;;;;;;11.60;10.70;;;9.00;87.00;;;;;;5005206;29;20051;-67
2021/09/30 05:25:24;;;;;;;11.30;10.50;;;8.90;84.90;;;;;;4993884;29;20125;-67
2021/09/30 05:27:56;;;;;;;12.02;11.02;;;8.90;86.20;;;;;;5006690;29;20049;-66
2021/09/30 05:30:29;;;;;;;12.00;11.10;;;8.80;87.20;;;;;;5008603;29;20046;-68
2021/09/30 05:33:04;;;;;;;11.90;11.00;;;8.80;87.70;;;;;;4991602;29;20058;-67
2021/09/30 05:35:39;;;;;;;12.63;11.50;;;8.80;87.40;;;;;;5008034;29;20101;-66
2021/09/30 05:38:11;;;;;;;16.08;11.02;;;8.90;87.50;;;;;;4993652;29;20053;-67
2021/09/30 05:40:47;;;;;;;11.25;10.40;;;8.80;87.90;;;;;;5006741;29;20049;-66
2021/09/30 05:43:39;;;;;;;11.20;10.40;;;8.90;87.80;;;;;;5008404;29;20592;-66
2021/09/30 05:46:13;;;;;;;11.90;10.68;;;8.90;87.80;;;;;;4992831;29;20656;-66
2021/09/30 05:48:45;;;;;;;10.90;10.10;;;9.00;87.80;;;;;;4997270;29;20049;-66
2021/09/30 05:51:17;;;;;;;11.50;10.50;;;9.00;88.30;;;;;;5005795;29;20053;-67
2021/09/30 05:54:03;;;;;;;11.50;10.60;;;9.10;88.10;;;;;;4995596;29;20046;-69
2021/09/30 05:56:44;;;;;;;11.00;10.20;;;9.10;87.10;;;;;;5006544;29;20109;-67
2021/09/30 05:59:20;;;;;;;11.15;10.25;;;9.10;87.60;;;;;;5008201;29;20053;-67
2021/09/30 06:12:19;;;;;;;11.00;10.20;;;9.00;86.00;;;;;;4992058;29;20656;-67
2021/09/30 06:14:51;;;;;;;10.70;9.70;;;9.00;86.00;;;;;;5009388;29;20929;-67
2021/09/30 06:17:24;;;;;;;10.35;9.52;;;9.10;85.60;;;;;;4995569;29;20136;-67
2021/09/30 06:19:59;;;;;;;10.60;9.70;;;9.10;85.80;;;;;;4985241;29;20089;-67
2021/09/30 06:22:33;;;;;;;10.75;9.85;;;9.10;85.40;;;;;;5010979;29;20056;-68
2021/09/30 06:25:05;;;;;;;10.93;9.93;;;9.10;85.10;;;;;;5009778;29;20053;-67
2021/09/30 06:27:37;;;;;;;10.07;9.18;;;9.10;85.60;;;;;;5010377;29;20146;-67
2021/09/30 06:30:11;;;;;;;10.32;9.52;;;9.10;86.40;;;;;;5000769;29;20057;-67
2021/09/30 06:32:45;;;;;;;10.10;9.20;;;9.20;85.70;;;;;;5016067;29;20045;-67
2021/09/30 06:35:36;;;;;;;10.80;9.90;;;9.30;85.80;;;;;;5011966;29;20221;-68
2021/09/30 06:38:08;;;;;;;10.48;9.57;;;9.40;86.20;;;;;;5010876;29;20546;-68
2021/09/30 06:40:42;;;;;;;10.20;9.40;;;9.50;86.60;;;;;;5016851;29;20593;-67
2021/09/30 06:43:14;;;;;;;10.88;9.98;;;9.70;85.40;;;;;;5002786;29;20054;-67
2021/09/30 06:46:05;;;;;;;11.18;10.27;;;9.90;85.70;;;;;;5009469;29;20070;-68
2021/09/30 06:48:45;;;;;;;12.45;11.35;;;10.00;85.40;;;;;;5008251;29;20165;-68
2021/09/30 06:51:29;;;;;;;11.40;10.50;;;10.00;86.00;;;;;;5009838;29;20077;-67
2021/09/30 06:54:02;;;;;;;11.02;10.23;;;10.00;84.70;;;;;;4998365;29;20098;-68
2021/09/30 06:56:57;;;;;;;11.43;10.52;;;10.00;84.10;;;;;;4993071;29;20074;-67
2021/09/30 06:59:47;;;;;;;11.80;10.82;;;10.00;84.10;;;;;;5012085;29;20046;-67
2021/09/30 07:02:41;;;;;;;;;;;10.10;84.80;;;;;;5015225;29;20076;-66
2021/09/30 07:05:33;;;;;;;11.18;10.27;;;10.10;83.90;;;;;;5011692;29;20067;-67
2021/09/30 07:08:11;;;;;;;11.13;10.32;;;10.10;83.40;;;;;;5011640;29;20056;-67
2021/09/30 07:10:44;;;;;;;11.25;10.45;;;10.10;83.50;;;;;;4998672;29;20046;-66
2021/09/30 07:13:16;;;;;;;11.40;10.50;;;10.10;83.60;;;;;;5009026;29;20136;-67
2021/09/30 07:15:48;;;;;;;11.40;10.43;;;10.10;84.20;;;;;;4995720;29;20576;-67
2021/09/30 07:18:20;;;;;;;11.15;10.25;;;10.10;83.50;;;;;;4993843;29;20105;-69
2021/09/30 07:20:57;;;;;;;10.75;9.85;;;10.10;83.80;;;;;;5009482;29;20172;-68
2021/09/30 07:23:30;;;;;;;11.00;10.10;;;10.10;83.50;;;;;;5011652;29;20579;-67
2021/09/30 07:26:03;;;;;;;11.00;10.00;;;10.10;82.00;;;;;;5009872;29;20446;-69
2021/09/30 07:28:35;;;;;;;11.57;10.52;;;10.10;83.50;;;;;;5011180;29;20080;-68
2021/09/30 07:31:08;;;;;;;12.07;11.18;;;10.30;82.40;;;;;;5009453;29;20090;-69
2021/09/30 07:33:40;;;;;;;11.75;10.85;;;10.50;82.00;;;;;;5014281;29;20052;-69
2021/09/30 07:36:13;;;;;;;12.90;11.95;;;10.70;81.60;;;;;;5009809;29;20150;-67
2021/09/30 07:38:45;;;;;;;12.93;11.93;;;10.90;80.60;;;;;;5011309;29;20112;-67
2021/09/30 07:41:17;;;;;;;13.23;12.23;;;11.20;81.60;;;;;;5011845;29;20054;-69
2021/09/30 07:43:50;;;;;;;12.88;11.98;;;11.50;79.50;;;;;;5009484;29;20133;-68
2021/09/30 07:46:21;;;;;;;12.73;11.73;;;11.60;77.80;;;;;;5009626;29;20057;-69
2021/09/30 07:48:53;;;;;;;12.90;11.90;;;11.60;77.70;;;;;;5012449;29;20128;-68
2021/09/30 07:51:26;;;;;;;11.73;10.82;;;11.80;79.10;;;;;;5006715;29;20050;-68
2021/09/30 07:53:58;;;;;;;12.18;11.27;;;11.90;78.60;;;;;;5000551;29;20054;-69
2021/09/30 07:56:31;;;;;;;12.35;11.40;;;12.00;76.30;;;;;;5011601;29;20069;-69
2021/09/30 07:59:04;;;;;;;12.98;11.98;;;12.10;78.50;;;;;;5011612;29;20038;-69
2021/09/30 08:01:36;;;;;;;12.55;11.55;;;12.20;78.30;;;;;;5009505;29;20047;-68
2021/09/30 08:04:08;;;;;;;12.20;11.20;;;12.40;77.00;;;;;;4993339;29;20121;-68
2021/09/30 08:06:40;;;;;;;12.48;11.52;;;12.50;76.60;;;;;;5008980;29;20056;-68
2021/09/30 08:09:12;;;;;;;12.85;11.85;;;12.70;74.60;;;;;;4998555;29;20152;-67
2021/09/30 08:11:44;;;;;;;12.43;11.52;;;12.80;76.00;;;;;;5009350;29;20124;-69
2021/09/30 08:14:16;;;;;;;12.32;11.43;;;12.90;72.70;;;;;;4993657;29;20125;-68
2021/09/30 08:16:49;;;;;;;11.93;10.95;;;13.10;71.80;;;;;;5008425;29;20049;-68
2021/09/30 08:19:21;;;;;;;12.50;11.40;;;13.10;70.70;;;;;;5010267;29;20045;-68
2021/09/30 08:21:53;;;;;;;11.90;11.00;;;13.20;69.00;;;;;;5009348;29;20063;-69
2021/09/30 08:24:25;;;;;;;12.55;11.65;;;13.20;70.80;;;;;;5007787;29;20526;-68
2021/09/30 08:26:57;;;;;;;12.10;11.20;;;13.30;70.60;;;;;;5009626;29;20038;-67
2021/09/30 08:29:29;;;;;;;12.35;11.35;;;13.40;70.60;;;;;;4998473;29;20056;-67
2021/09/30 08:32:01;;;;;;;12.43;11.43;;;13.50;70.00;;;;;;4992096;29;20696;-69
2021/09/30 08:34:33;;;;;;;12.75;11.75;;;13.70;68.10;;;;;;5008815;29;20427;-70
2021/09/30 08:37:05;;;;;;;12.43;11.43;;;13.70;66.30;;;;;;5008077;29;20428;-67
2021/09/30 08:39:37;;;;;;;12.77;11.75;;;13.70;65.80;;;;;;5009528;29;20486;-68
2021/09/30 08:42:11;;;;;;;12.77;11.77;;;13.90;65.10;;;;;;5007192;29;20137;-68
2021/09/30 08:44:43;;;;;;;12.75;11.75;;;14.10;65.10;;;;;;5009201;29;20042;-68
2021/09/30 08:47:19;;;;;;;13.15;11.95;;;14.00;60.20;;;;;;5009971;29;21026;-68
2021/09/30 08:49:51;;;;;;;12.48;11.57;;;14.10;61.50;;;;;;4994896;29;20069;-69
2021/09/30 08:52:23;;;;;;;12.70;11.65;;;14.30;62.30;;;;;;5009105;29;20053;-69
2021/09/30 08:54:55;;;;;;;12.73;11.68;;;14.50;61.00;;;;;;5007862;29;20419;-70
2021/09/30 08:57:27;;;;;;;12.52;11.63;;;14.70;62.90;;;;;;5010638;29;20140;-70
2021/09/30 09:00:03;;;;;;;12.82;11.82;;;14.90;61.80;;;;;;5008411;29;20137;-68
2021/09/30 09:02:43;;;;;;;12.82;11.80;;;15.10;62.20;;;;;;5009470;29;20140;-69
2021/09/30 09:05:17;;;;;;;12.95;11.90;;;15.30;60.20;;;;;;5006995;29;20133;-68
2021/09/30 09:08:15;;;;;;;13.00;12.10;;;15.30;57.30;;;;;;5009336;29;20398;-68
2021/09/30 09:10:52;;;;;;;12.80;11.80;;;15.40;58.00;;;;;;5006550;29;20073;-68
2021/09/30 09:13:24;;;;;;;12.82;11.93;;;15.50;58.50;;;;;;5008906;29;20113;-68
2021/09/30 09:16:01;;;;;;;12.57;11.68;;;15.40;56.50;;;;;;4998836;29;20056;-68
2021/09/30 09:18:41;;;;;;;12.48;11.57;;;15.40;60.50;;;;;;4997549;29;20073;-69
2021/09/30 09:21:20;;;;;;;13.10;12.20;;;15.50;58.80;;;;;;5010602;29;20996;-70
2021/09/30 09:23:52;;;;;;;12.93;12.02;;;15.60;56.70;;;;;;5010703;29;20795;-69
2021/09/30 09:26:37;;;;;;;12.82;11.93;;;15.70;60.30;;;;;;5007472;29;20094;-68
2021/09/30 09:29:15;;;;;;;13.02;12.02;;;15.80;59.90;;;;;;5007747;29;20543;-69
2021/09/30 09:31:49;;;;;;;12.95;12.00;;;16.00;59.20;;;;;;5008848;29;20060;-69
2021/09/30 09:34:38;;;;;;;12.90;11.80;;;16.10;58.80;;;;;;4998676;29;20053;-68
2021/09/30 09:40:16;;;;;;;12.90;11.90;;;16.30;58.90;;;;;;5007844;29;20305;-70
2021/09/30 09:42:48;;;;;;;13.00;12.00;;;16.40;57.40;;;;;;5008935;29;20218;-68
2021/09/30 09:45:20;;;;;;;13.30;12.30;;;16.30;56.70;;;;;;5010052;29;20125;-69
2021/09/30 09:47:52;;;;;;;12.80;11.90;;;16.30;58.60;;;;;;5006691;29;20133;-69
2021/09/30 09:50:25;;;;;;;12.93;12.00;;;16.10;56.40;;;;;;4990504;29;20133;-69
2021/09/30 09:53:02;;;;;;;12.98;11.90;;;16.00;57.70;;;;;;5012718;29;20045;-69
2021/09/30 09:55:39;;;;;;;13.32;12.32;;;16.10;55.40;;;;;;5013995;29;20050;-68
2021/09/30 09:58:15;;;;;;;12.48;11.57;;;16.10;55.80;;;;;;5012509;29;20881;-68
2021/09/30 10:00:50;;;;;;;13.05;12.05;;;16.00;53.40;;;;;;5014403;29;20571;-69
2021/09/30 10:03:30;;;;;;;13.00;11.90;;;16.10;55.20;;;;;;5013998;29;20041;-68
2021/09/30 10:06:03;;;;;;;;;;;16.20;56.60;;;;;;5013339;29;20259;-68
2021/09/30 10:08:35;;;;;;;13.27;12.38;;;16.30;56.60;;;;;;5012396;29;20023;-68
2021/09/30 10:11:07;;;;;;;12.98;12.07;;;16.40;54.40;;;;;;5012454;29;20061;-68
2021/09/30 10:13:40;;;;;;;12.98;12.00;;;16.50;54.70;;;;;;4997923;29;20046;-68
2021/09/30 10:16:24;;;;;;;13.48;12.48;;;16.50;52.10;;;;;;5011516;29;20061;-67
2021/09/30 10:18:59;;;;;;;13.73;12.70;;;16.50;53.40;;;;;;5012814;29;20133;-68
2021/09/30 10:21:32;;;;;;;12.52;11.63;;;16.50;55.10;;;;;;5001103;29;20085;-68
2021/09/30 10:24:05;;;;;;;13.25;12.15;;;16.50;53.40;;;;;;5010394;29;20121;-69
2021/09/30 10:26:48;;;;;;;13.05;12.07;;;16.60;55.50;;;;;;5010069;29;20144;-68
2021/09/30 10:29:45;;;;;;;13.13;12.13;;;16.60;54.20;;;;;;5009317;29;20117;-69
2021/09/30 10:32:20;;;;;;;13.95;12.85;;;16.70;54.00;;;;;;5002623;29;20049;-69
2021/09/30 10:35:00;;;;;;;13.35;12.45;;;16.80;55.50;;;;;;5010921;29;20168;-69
2021/09/30 10:37:32;;;;;;;13.32;12.43;;;16.70;53.80;;;;;;5011997;29;20064;-69
2021/09/30 10:40:21;;;;;;;13.43;12.43;;;16.80;55.80;;;;;;5012821;29;20046;-70
2021/09/30 10:42:57;;;;;;;12.75;11.85;;;16.90;54.60;;;;;;4996045;29;20046;-69
2021/09/30 10:45:40;;;;;;;13.25;12.30;;;17.00;55.40;;;;;;5012332;29;20042;-69
2021/09/30 10:48:24;;;;;;;13.38;12.45;;;16.90;55.70;;;;;;4999956;29;20603;-70
2021/09/30 10:50:58;;;;;;;13.63;12.52;;;16.80;55.10;;;;;;5012528;29;20121;-70
2021/09/30 10:54:00;;;;;;;13.50;12.40;;;16.90;54.30;;;;;;5014257;29;20075;-69
2021/09/30 10:56:37;;;;;;;13.18;12.18;;;16.90;53.70;;;;;;4996538;29;20813;-69
2021/09/30 10:59:09;;;;;;;13.18;12.27;;;16.90;53.20;;;;;;5013873;29;20145;-71
2021/09/30 11:01:52;;;;;;;13.23;12.23;;;16.90;53.00;;;;;;5010771;29;20169;-68
2021/09/30 11:04:25;;;;;;;13.68;12.45;;;17.00;54.80;;;;;;5010863;29;20052;-69
2021/09/30 11:07:17;;;;;;;12.80;11.80;;;17.10;54.80;;;;;;5008268;29;20041;-69
2021/09/30 11:10:11;;;;;;;13.90;12.75;;;17.00;54.00;;;;;;5011128;29;20501;-68
2021/09/30 11:13:16;;;;;;;12.93;11.95;;;17.10;55.10;;;;;;5012856;29;20087;-70
2021/09/30 11:16:09;;;;;;;13.32;12.32;;;17.10;53.30;;;;;;5004803;29;20053;-68
2021/09/30 11:18:56;;;;;;;13.05;11.98;;;17.20;56.40;;;;;;5002624;29;20567;-67
2021/09/30 11:21:31;;;;;;;12.70;11.80;;;17.30;52.60;;;;;;5011619;29;20259;-68
2021/09/30 11:24:09;;;;;;;13.10;12.20;;;17.20;54.70;;;;;;5011472;29;20133;-67
2021/09/30 11:26:53;;;;;;;13.73;12.70;;;17.20;52.50;;;;;;5011058;29;20049;-68
2021/09/30 11:29:27;;;;;;;14.05;13.05;;;17.20;54.40;;;;;;5001287;29;20058;-68
2021/09/30 11:31:59;;;;;;;14.10;13.10;;;17.20;54.50;;;;;;5010852;29;20591;-67
2021/09/30 11:34:41;;;;;;;14.20;13.20;;;17.30;54.30;;;;;;5013613;29;20049;-68
2021/09/30 11:37:36;;;;;;;13.40;12.48;;;17.30;53.10;;;;;;5009997;29;20176;-68
2021/09/30 11:43:24;;;;;;;13.13;12.13;;;17.20;54.30;;;;;;4954977;29;20450;-70
2021/09/30 11:45:56;;;;;;;13.95;12.85;;;17.30;52.50;;;;;;4960004;29;20221;-69
2021/09/30 11:48:29;;;;;;;13.18;12.18;;;17.30;53.30;;;;;;4960309;29;20771;-68
2021/09/30 11:51:00;;;;;;;13.07;12.18;;;17.00;54.50;;;;;;4961463;29;20504;-71
2021/09/30 11:53:32;;;;;;;12.80;11.90;;;17.10;55.10;;;;;;4962716;29;20055;-69
2021/09/30 11:56:10;;;;;;;13.20;12.20;;;17.10;53.70;;;;;;4961771;29;20070;-69
2021/09/30 11:58:56;;;;;;;13.00;12.07;;;17.20;54.40;;;;;;4962479;29;20143;-69
2021/09/30 12:01:34;;;;;;;12.50;11.60;;;17.20;54.90;;;;;;4961986;29;20150;-68
2021/09/30 12:04:07;;;;;;;12.40;11.48;;;17.20;52.40;;;;;;4974549;29;20047;-69
2021/09/30 12:06:46;;;;;;;12.82;11.93;;;17.20;53.10;;;;;;4959951;29;20043;-69
2021/09/30 12:09:19;;;;;;;12.82;11.82;;;17.30;53.30;;;;;;4961423;29;20633;-68
2021/09/30 12:11:53;;;;;;;13.23;12.13;;;17.30;54.30;;;;;;4961396;29;20095;-67
2021/09/30 12:14:38;;;;;;;13.55;12.45;;;17.30;54.30;;;;;;4961620;29;20426;-68
2021/09/30 12:17:16;;;;;;;14.00;12.70;;;17.30;54.00;;;;;;4957291;29;20055;-67
2021/09/30 12:19:54;;;;;;;13.73;12.70;;;17.30;54.40;;;;;;4959976;29;20138;-68
2021/09/30 12:22:53;;;;;;;13.63;12.57;;;17.30;54.10;;;;;;4960580;29;20050;-68
2021/09/30 12:25:28;;;;;;;13.82;12.82;;;17.20;54.80;;;;;;4960177;29;20123;-68
2021/09/30 12:28:00;;;;;;;14.05;13.00;;;17.20;55.50;;;;;;4959383;29;20039;-68
2021/09/30 12:30:32;;;;;;;13.73;12.68;;;17.30;54.20;;;;;;4960906;29;20066;-69
2021/09/30 12:33:04;;;;;;;13.65;12.65;;;17.30;55.00;;;;;;4961233;29;20109;-68
2021/09/30 12:35:41;;;;;;;14.27;13.27;;;17.30;55.60;;;;;;4959615;29;20139;-67
2021/09/30 12:38:19;;;;;;;13.77;12.77;;;17.20;55.40;;;;;;4961046;29;20082;-69
2021/09/30 12:40:57;;;;;;;13.40;12.40;;;17.20;56.60;;;;;;4962987;29;20055;-69
2021/09/30 12:43:31;;;;;;;13.57;12.57;;;17.10;55.20;;;;;;4978067;29;20130;-70
2021/09/30 12:46:07;;;;;;;13.60;12.32;;;17.10;55.20;;;;;;4978433;29;20135;-70
2021/09/30 12:48:42;;;;;;;13.88;12.88;;;17.00;54.70;;;;;;4980012;29;20054;-69
2021/09/30 12:51:21;;;;;;;13.50;12.50;;;17.00;55.70;;;;;;4976981;29;20134;-70
2021/09/30 12:53:54;;;;;;;13.80;12.80;;;16.90;55.40;;;;;;4978087;29;20050;-68
2021/09/30 12:56:31;;;;;;;14.15;13.05;;;16.90;56.20;;;;;;4964832;29;20062;-70
2021/09/30 12:59:14;;;;;;;14.70;13.50;;;17.00;57.60;;;;;;4980475;29;20125;-69
2021/09/30 13:01:46;;;;;;;14.07;13.07;;;17.00;57.10;;;;;;4975147;29;20081;-68
2021/09/30 13:04:26;;;;;;;14.05;12.98;;;17.00;55.20;;;;;;4978653;29;20052;-68
2021/09/30 13:07:01;;;;;;;14.10;13.00;;;17.00;55.60;;;;;;4978133;29;20038;-69
2021/09/30 13:09:40;;;;;;;13.98;12.88;;;17.00;57.00;;;;;;4979046;29;20083;-69
2021/09/30 13:12:15;;;;;;;13.77;12.73;;;16.90;56.40;;;;;;4977590;29;20467;-68
2021/09/30 13:14:54;;;;;;;13.95;12.95;;;16.90;57.70;;;;;;4979366;29;20054;-68
2021/09/30 13:17:28;;;;;;;14.02;12.93;;;17.00;58.00;;;;;;4976744;29;20567;-68
2021/09/30 13:20:06;;;;;;;14.23;13.02;;;17.00;56.70;;;;;;4967331;29;20178;-70
2021/09/30 13:22:41;;;;;;;13.70;12.70;;;17.00;55.90;;;;;;4978972;29;20143;-69
2021/09/30 13:25:20;;;;;;;13.90;12.90;;;17.00;56.00;;;;;;4977380;29;20050;-69
2021/09/30 13:27:53;;;;;;;14.13;13.02;;;16.90;56.40;;;;;;4978062;29;20072;-69
2021/09/30 13:30:30;;;;;;;13.27;12.27;;;16.80;56.00;;;;;;4977536;29;20046;-69
2021/09/30 13:33:03;;;;;;;13.60;12.60;;;16.90;56.50;;;;;;4978206;29;20536;-69
2021/09/30 13:35:35;;;;;;;13.73;12.73;;;16.80;56.00;;;;;;4976412;29;20125;-68
2021/09/30 13:38:07;;;;;;;13.77;12.73;;;16.80;56.50;;;;;;4978040;29;20153;-69
2021/09/30 13:40:39;;;;;;;13.50;12.50;;;16.80;56.80;;;;;;4978028;29;20050;-68
2021/09/30 13:43:13;;;;;;;13.50;12.50;;;16.80;56.50;;;;;;4978981;29;20058;-68
2021/09/30 13:45:45;;;;;;;13.40;12.30;;;16.80;57.10;;;;;;4976782;29;20202;-69
2021/09/30 13:48:17;;;;;;;13.25;12.25;;;16.90;57.70;;;;;;4978829;29;20051;-70
2021/09/30 13:50:49;;;;;;;13.82;12.82;;;16.90;56.00;;;;;;4977878;29;20054;-69
2021/09/30 13:53:21;;;;;;;13.80;12.80;;;16.90;56.90;;;;;;4976271;29;20153;-70
2021/09/30 13:55:53;;;;;;;13.90;12.90;;;16.90;56.70;;;;;;4978334;29;20455;-70
2021/09/30 13:58:26;;;;;;;13.52;12.57;;;16.90;56.70;;;;;;4977786;29;20058;-69
2021/09/30 14:00:59;;;;;;;13.65;12.65;;;16.90;55.60;;;;;;4977229;29;20051;-69
2021/09/30 14:03:31;;;;;;;13.82;12.75;;;17.00;56.10;;;;;;4979394;29;20556;-69
2021/09/30 14:06:03;;;;;;;13.70;12.65;;;17.00;55.70;;;;;;4976254;29;20057;-69
2021/09/30 14:08:35;;;;;;;14.50;13.38;;;17.00;56.60;;;;;;4976512;29;20066;-70
2021/09/30 14:11:09;;;;;;;14.05;12.95;;;17.10;56.10;;;;;;4964498;29;20050;-69
2021/09/30 14:13:42;;;;;;;14.15;13.05;;;17.10;56.30;;;;;;4976571;29;20051;-70
2021/09/30 14:16:14;;;;;;;14.13;13.13;;;17.20;55.30;;;;;;4973823;29;20088;-69
2021/09/30 14:18:46;;;;;;;13.68;12.57;;;17.30;56.30;;;;;;4965956;29;20137;-71
2021/09/30 14:21:19;;;;;;;13.30;12.30;;;17.40;55.90;;;;;;4976418;29;20061;-69
2021/09/30 14:23:51;;;;;;;14.63;13.52;;;17.50;55.30;;;;;;4977145;29;20099;-69
2021/09/30 14:26:24;;;;;;;13.45;12.45;;;17.60;55.60;;;;;;4975914;29;20061;-70
2021/09/30 14:28:56;;;;;;;13.90;12.90;;;17.70;55.80;;;;;;4973858;29;20148;-69
2021/09/30 14:31:27;;;;;;;13.10;12.20;;;17.80;55.70;;;;;;4975411;29;20062;-72
2021/09/30 14:33:59;;;;;;;13.57;12.57;;;17.90;56.10;;;;;;4976128;29;20478;-69
2021/09/30 14:36:32;;;;;;;13.38;12.15;;;18.10;54.30;;;;;;4977980;29;20145;-69
2021/09/30 14:39:04;;;;;;;13.27;12.27;;;18.10;54.00;;;;;;4980298;29;20497;-70
2021/09/30 14:41:36;;;;;;;14.00;12.63;;;18.20;54.20;;;;;;4980159;29;20152;-69
2021/09/30 14:44:09;;;;;;;13.40;12.38;;;18.20;54.60;;;;;;4979357;29;20161;-70
2021/09/30 14:46:41;;;;;;;13.15;12.15;;;18.00;54.80;;;;;;4979726;29;20039;-69
2021/09/30 14:49:13;;;;;;;13.50;12.50;;;17.80;55.70;;;;;;4980204;29;20069;-69
2021/09/30 14:51:45;;;;;;;13.38;12.23;;;17.70;55.90;;;;;;4978171;29;20496;-69
2021/09/30 14:54:17;;;;;;;13.57;12.48;;;17.90;55.50;;;;;;4981654;29;20577;-70
2021/09/30 14:56:49;;;;;;;13.85;12.77;;;18.10;55.60;;;;;;4966825;29;20046;-70
2021/09/30 14:59:21;;;;;;;13.23;12.15;;;18.30;56.70;;;;;;4982355;29;20047;-70
2021/09/30 15:01:53;;;;;;;13.75;12.75;;;18.40;55.50;;;;;;4979125;29;20824;-71
2021/09/30 15:04:25;;;;;;;13.55;12.43;;;18.70;55.50;;;;;;4980648;29;20421;-70
2021/09/30 15:06:57;;;;;;;14.13;12.90;;;18.80;53.90;;;;;;4979626;29;21154;-70
2021/09/30 15:09:29;;;;;;;13.27;12.27;;;18.90;54.90;;;;;;4981658;29;20042;-70
2021/09/30 15:12:02;;;;;;;13.30;12.20;;;18.70;55.00;;;;;;4980183;29;20145;-70
2021/09/30 15:14:33;;;;;;;13.52;12.43;;;18.70;53.30;;;;;;4981083;29;20689;-70
2021/09/30 15:22:41;;;;;;;14.15;13.07;;;18.90;56.20;;;;;;4978599;29;20982;-70
2021/09/30 15:25:13;;;;;;;13.80;12.50;;;19.00;54.20;;;;;;4965240;29;20132;-69
2021/09/30 15:27:47;;;;;;;13.18;12.20;;;18.70;54.70;;;;;;4977658;29;20103;-68
2021/09/30 15:30:21;;;;;;;13.75;12.65;;;18.30;56.30;;;;;;4979133;29;20050;-68
2021/09/30 15:32:53;;;;;;;13.50;12.50;;;17.80;55.00;;;;;;4979540;29;20210;-67
2021/09/30 15:35:25;;;;;;;13.18;12.18;;;17.20;55.90;;;;;;4975659;29;20050;-69
2021/09/30 15:37:57;;;;;;;13.88;12.73;;;17.00;58.80;;;;;;4978275;29;20057;-68
2021/09/30 15:40:29;;;;;;;13.27;12.27;;;16.80;58.80;;;;;;4980453;29;20054;-69
2021/09/30 15:43:01;;;;;;;12.95;11.85;;;16.70;58.90;;;;;;4979974;29;20754;-70
2021/09/30 15:45:34;;;;;;;13.10;12.10;;;16.60;59.40;;;;;;4978391;29;20144;-69
2021/09/30 15:48:06;;;;;;;12.20;11.30;;;16.40;59.50;;;;;;4979092;29;20125;-70
2021/09/30 15:50:38;;;;;;;12.43;11.35;;;16.30;60.20;;;;;;4980067;29;20137;-69
2021/09/30 15:53:10;;;;;;;12.10;11.10;;;16.30;61.70;;;;;;4980324;29;20054;-70
2021/09/30 15:55:42;;;;;;;12.45;11.45;;;16.20;61.60;;;;;;4979936;29;20054;-70
2021/09/30 15:58:14;;;;;;;12.32;11.38;;;16.20;61.80;;;;;;4980497;29;20055;-69
2021/09/30 16:00:46;;;;;;;12.20;11.20;;;16.10;60.80;;;;;;4980195;29;20065;-70
2021/09/30 16:03:20;;;;;;;12.05;11.10;;;16.00;62.40;;;;;;4983105;29;20054;-70
2021/09/30 16:05:52;;;;;;;12.38;11.38;;;15.90;61.70;;;;;;4978370;29;20078;-70